Time;durP1;ratioP1;P1;durP2;ratioP2;P2;SDS_P1;SDS_P2;PMS_P1;PMS_P2;Temp;Humidity;BMP_temperature;BMP_pressure;BME280_temperature;BME280_humidity;BME280_pressure;Samples;Min_cycle;Max_cycle;Signal;HPM_P1;HPM_P2
2022/12/24 00:07:10;;;;;;;22.25;4.47;;;10.30;99.90;;;;;;20685128;28;20077;-43
2022/12/24 00:17:11;;;;;;;15.25;3.95;;;10.40;99.90;;;;;;20675788;28;20201;-43
2022/12/24 00:27:12;;;;;;;10.07;4.00;;;10.40;99.90;;;;;;20671576;28;20050;-43
2022/12/24 00:37:13;;;;;;;9.30;4.05;;;10.20;99.90;;;;;;20669365;28;20073;-43
2022/12/24 00:47:14;;;;;;;21.52;4.90;;;10.20;99.90;;;;;;20670795;28;20094;-43
2022/12/24 00:57:15;;;;;;;16.70;3.45;;;10.00;99.90;;;;;;20653335;28;20074;-42
2022/12/24 01:07:16;;;;;;;7.13;2.67;;;9.80;99.90;;;;;;20657373;28;20276;-43
2022/12/24 01:17:18;;;;;;;7.97;2.42;;;9.70;99.90;;;;;;20660857;28;20478;-43
2022/12/24 01:27:19;;;;;;;38.70;5.93;;;9.50;99.90;;;;;;20668544;28;20588;-43
2022/12/24 01:37:19;;;;;;;11.82;3.85;;;9.40;99.90;;;;;;20662772;28;20711;-43
2022/12/24 01:47:27;;;;;;;8.20;3.80;;;9.30;99.90;;;;;;20650511;28;20671;-43
2022/12/24 01:57:43;;;;;;;5.82;2.15;;;9.20;99.90;;;;;;20654440;28;20073;-43
2022/12/24 02:07:45;;;;;;;7.72;3.50;;;9.10;99.90;;;;;;20652957;28;20216;-43
2022/12/24 02:17:51;;;;;;;13.32;2.88;;;9.10;99.90;;;;;;20651204;28;20193;-43
2022/12/24 02:28:34;;;;;;;16.90;2.90;;;9.20;99.90;;;;;;20661039;28;20073;-43
2022/12/24 02:38:48;;;;;;;5.00;1.77;;;9.20;99.90;;;;;;20599956;28;20850;-43
2022/12/24 02:48:50;;;;;;;10.35;3.83;;;9.20;99.90;;;;;;20668481;28;20543;-44
2022/12/24 02:59:15;;;;;;;26.73;3.40;;;9.20;99.90;;;;;;20665469;28;20140;-43
2022/12/24 03:09:42;;;;;;;3.10;1.33;;;9.20;99.90;;;;;;20668146;28;21941;-43
2022/12/24 03:19:43;;;;;;;10.85;3.78;;;9.30;99.90;;;;;;20661651;28;20112;-43
2022/12/24 03:29:45;;;;;;;7.40;2.92;;;9.10;99.90;;;;;;20656379;28;20247;-43
2022/12/24 03:39:47;;;;;;;28.15;5.35;;;9.00;99.90;;;;;;20660495;28;20135;-43
2022/12/24 03:49:48;;;;;;;13.68;2.72;;;9.00;99.90;;;;;;20671834;28;20070;-43
2022/12/24 03:59:49;;;;;;;10.57;3.03;;;9.10;99.90;;;;;;20663569;28;20112;-43
2022/12/24 04:09:50;;;;;;;11.38;4.63;;;9.30;99.90;;;;;;20663196;28;20077;-43
2022/12/24 04:19:51;;;;;;;16.80;4.32;;;9.50;99.90;;;;;;20665736;28;20037;-43
2022/12/24 04:29:52;;;;;;;6.32;2.20;;;9.40;99.90;;;;;;20663508;28;20050;-44
2022/12/24 04:39:53;;;;;;;11.18;2.97;;;9.50;99.90;;;;;;20660360;28;20050;-43
2022/12/24 04:49:54;;;;;;;13.70;4.05;;;9.50;99.90;;;;;;20666109;28;20041;-43
2022/12/24 04:59:55;;;;;;;7.38;2.45;;;9.60;99.90;;;;;;20653412;28;20026;-43
2022/12/24 05:09:56;;;;;;;8.98;3.08;;;9.60;99.90;;;;;;20659139;28;20061;-43
2022/12/24 05:19:57;;;;;;;5.93;2.13;;;9.70;99.90;;;;;;20659684;28;20425;-43
2022/12/24 05:29:59;;;;;;;10.00;2.97;;;9.70;99.90;;;;;;20652753;28;20528;-44
2022/12/24 05:40:00;;;;;;;14.63;3.10;;;9.70;99.90;;;;;;20657964;28;20468;-43
2022/12/24 05:50:01;;;;;;;7.10;2.47;;;9.70;99.90;;;;;;20660065;28;20041;-43
2022/12/24 06:00:02;;;;;;;18.30;5.05;;;9.70;99.90;;;;;;20660308;28;20596;-43
2022/12/24 06:10:04;;;;;;;8.82;2.78;;;9.60;99.90;;;;;;20661301;28;20821;-43
2022/12/24 06:20:06;;;;;;;14.15;4.43;;;9.60;99.90;;;;;;20677462;28;20489;-42
2022/12/24 06:30:07;;;;;;;10.05;4.28;;;9.70;99.90;;;;;;20663850;28;20124;-43
2022/12/24 06:40:09;;;;;;;12.07;4.22;;;9.80;99.90;;;;;;20664261;28;20786;-43
2022/12/24 06:50:10;;;;;;;17.83;3.13;;;9.70;99.90;;;;;;20668218;28;20129;-43
2022/12/24 07:00:12;;;;;;;10.73;4.00;;;9.70;99.90;;;;;;20668418;28;20111;-44
2022/12/24 07:10:15;;;;;;;15.55;3.33;;;9.80;99.90;;;;;;20666418;28;20742;-43
2022/12/24 07:20:16;;;;;;;9.02;4.18;;;9.70;99.90;;;;;;20664333;28;20125;-44
2022/12/24 07:30:17;;;;;;;17.38;5.07;;;9.60;99.90;;;;;;20670673;28;20074;-43
2022/12/24 07:40:18;;;;;;;13.20;4.35;;;9.50;99.90;;;;;;20646162;28;20173;-44
2022/12/24 07:50:19;;;;;;;10.38;4.75;;;9.40;99.90;;;;;;20654623;28;20069;-43
2022/12/24 08:00:20;;;;;;;16.27;4.53;;;9.30;99.90;;;;;;20639282;28;20105;-43
2022/12/24 08:10:21;;;;;;;28.23;5.65;;;9.30;99.90;;;;;;20643088;28;20038;-43
2022/12/24 08:20:22;;;;;;;17.08;4.82;;;9.30;99.90;;;;;;20653293;28;20299;-43
2022/12/24 08:30:23;;;;;;;15.73;4.15;;;9.30;99.90;;;;;;20668316;28;20132;-42
2022/12/24 08:40:24;;;;;;;19.05;5.80;;;9.20;99.90;;;;;;20677149;28;20050;-44
2022/12/24 08:50:27;;;;;;;9.98;5.07;;;9.40;99.90;;;;;;20665959;28;20147;-43
2022/12/24 09:00:28;;;;;;;15.23;4.88;;;9.50;99.90;;;;;;20673330;28;20131;-43
2022/12/24 09:10:29;;;;;;;13.60;4.65;;;9.60;99.90;;;;;;20639436;28;20799;-42
2022/12/24 09:20:30;;;;;;;8.90;3.47;;;9.80;99.90;;;;;;20639999;28;20124;-43
2022/12/24 09:30:31;;;;;;;10.55;3.78;;;10.00;99.90;;;;;;20634213;28;20667;-43
2022/12/24 09:40:38;;;;;;;16.65;4.28;;;10.10;99.90;;;;;;20650244;28;20124;-43
2022/12/24 09:50:53;;;;;;;6.20;2.37;;;10.30;99.90;;;;;;20652070;28;20568;-43
2022/12/24 10:00:55;;;;;;;8.50;2.10;;;10.50;99.90;;;;;;20652745;28;20131;-44
2022/12/24 10:11:26;;;;;;;8.70;3.38;;;10.60;99.90;;;;;;20669450;28;20088;-43
2022/12/24 10:21:43;;;;;;;12.32;3.88;;;10.70;99.90;;;;;;20665879;28;20696;-43
2022/12/24 10:31:59;;;;;;;5.85;2.47;;;10.80;99.90;;;;;;20657956;28;20368;-44
2022/12/24 10:42:01;;;;;;;32.65;6.25;;;10.80;99.90;;;;;;20661043;28;20986;-43
2022/12/24 10:52:05;;;;;;;9.05;3.35;;;10.70;99.90;;;;;;20662816;28;20512;-43
2022/12/24 11:02:29;;;;;;;7.00;2.97;;;10.80;99.90;;;;;;20677341;28;20854;-44
2022/12/24 11:12:37;;;;;;;25.48;3.85;;;10.80;99.90;;;;;;20697808;28;20745;-43
2022/12/24 11:22:38;;;;;;;7.53;3.42;;;10.70;99.90;;;;;;20692459;28;20440;-43
2022/12/24 11:33:10;;;;;;;15.10;3.42;;;10.60;99.90;;;;;;20701098;28;20136;-44
2022/12/24 11:43:19;;;;;;;6.53;2.53;;;10.60;99.90;;;;;;20688761;28;20053;-43
2022/12/24 11:53:25;;;;;;;6.72;2.50;;;10.70;99.90;;;;;;20693128;28;20053;-44
2022/12/24 12:03:31;;;;;;;3.22;1.42;;;10.90;99.90;;;;;;20691828;28;20490;-44
2022/12/24 12:13:33;;;;;;;6.35;2.20;;;11.20;99.90;;;;;;20680845;28;20050;-44
2022/12/24 12:23:53;;;;;;;10.02;3.45;;;11.30;99.90;;;;;;20685577;28;20057;-43
2022/12/24 12:34:04;;;;;;;16.77;4.18;;;11.00;99.90;;;;;;20691858;28;20108;-43
2022/12/24 12:44:20;;;;;;;8.75;3.00;;;10.90;99.90;;;;;;20691660;28;20058;-44
2022/12/24 12:54:36;;;;;;;5.05;1.75;;;11.00;99.90;;;;;;20682441;28;20660;-43
2022/12/24 13:04:56;;;;;;;20.33;3.33;;;10.80;99.90;;;;;;20690257;28;20124;-42
2022/12/24 13:15:00;;;;;;;13.93;3.92;;;10.70;99.90;;;;;;20679835;28;20095;-43
2022/12/24 13:25:02;;;;;;;5.50;1.90;;;10.90;99.90;;;;;;20673356;28;20065;-43
2022/12/24 13:35:22;;;;;;;10.77;3.25;;;11.30;99.90;;;;;;20671461;28;20065;-43
2022/12/24 13:45:29;;;;;;;4.38;1.58;;;11.50;99.90;;;;;;20665977;28;21961;-45
2022/12/24 13:55:31;;;;;;;7.23;2.00;;;11.40;99.90;;;;;;20689628;28;20046;-44
2022/12/24 14:05:45;;;;;;;4.30;2.10;;;11.20;99.90;;;;;;20687600;28;20047;-44
2022/12/24 14:15:50;;;;;;;9.70;2.88;;;11.10;99.90;;;;;;20686560;28;20552;-43
2022/12/24 14:25:51;;;;;;;4.47;1.33;;;10.90;99.90;;;;;;20669075;28;20078;-43
2022/12/24 14:35:52;;;;;;;4.15;1.55;;;11.00;99.90;;;;;;20680297;28;20256;-43
2022/12/24 14:46:33;;;;;;;7.95;2.78;;;10.90;99.90;;;;;;20683735;28;20077;-44
2022/12/24 14:56:34;;;;;;;5.97;1.70;;;10.90;99.90;;;;;;20626814;28;20690;-43
2022/12/24 15:06:51;;;;;;;3.95;1.92;;;10.80;99.90;;;;;;20664625;28;20094;-44
2022/12/24 15:17:00;;;;;;;8.13;3.60;;;10.60;99.90;;;;;;20671558;28;20143;-43
2022/12/24 15:27:15;;;;;;;8.77;3.03;;;10.30;99.90;;;;;;20660294;28;20528;-43
2022/12/24 15:37:28;;;;;;;4.30;1.75;;;10.10;99.90;;;;;;20650630;28;20779;-43
2022/12/24 15:47:42;;;;;;;8.68;2.55;;;9.90;99.90;;;;;;20655787;28;20117;-43
2022/12/24 15:57:43;;;;;;;12.82;3.83;;;9.80;99.90;;;;;;20640341;28;20054;-43
2022/12/24 16:08:08;;;;;;;5.53;1.88;;;9.60;99.90;;;;;;20608628;28;20052;-43
2022/12/24 16:18:15;;;;;;;6.40;2.38;;;9.50;99.90;;;;;;20638726;28;20325;-42
2022/12/24 16:28:16;;;;;;;;;;;9.30;99.90;;;;;;20651555;28;20160;-43
2022/12/24 16:38:17;;;;;;;9.90;4.07;;;9.20;99.90;;;;;;20599442;28;19929;-43
2022/12/24 16:48:28;;;;;;;10.80;3.58;;;9.20;99.90;;;;;;20617207;28;20566;-44
2022/12/24 16:58:31;;;;;;;13.93;5.72;;;9.10;99.90;;;;;;20664106;28;20056;-43
2022/12/24 17:08:32;;;;;;;14.90;5.43;;;8.90;99.90;;;;;;20655695;28;20077;-43
2022/12/24 17:18:33;;;;;;;16.30;4.93;;;8.80;99.90;;;;;;20641875;28;20121;-43
2022/12/24 17:28:34;;;;;;;16.52;5.38;;;8.80;99.90;;;;;;20682031;28;20060;-43
2022/12/24 17:38:36;;;;;;;13.82;4.25;;;8.70;99.90;;;;;;20687141;28;20049;-43
2022/12/24 17:48:37;;;;;;;13.48;4.53;;;8.60;99.90;;;;;;20684302;28;20065;-43
2022/12/24 17:58:39;;;;;;;20.38;5.53;;;8.50;99.90;;;;;;20648839;28;20128;-43
2022/12/24 18:08:42;;;;;;;21.60;6.20;;;8.40;99.90;;;;;;20673442;28;20509;-43
2022/12/24 18:18:44;;;;;;;14.68;6.03;;;8.20;99.90;;;;;;20687130;28;20571;-43
2022/12/24 18:28:46;;;;;;;31.70;7.82;;;8.20;99.90;;;;;;20670525;28;20187;-43
2022/12/24 18:38:47;;;;;;;20.73;7.13;;;8.30;99.90;;;;;;20657279;28;20153;-43
2022/12/24 18:48:48;;;;;;;16.25;6.45;;;8.20;99.90;;;;;;20669528;28;20065;-43
2022/12/24 18:58:55;;;;;;;16.05;7.05;;;8.30;99.90;;;;;;20656530;28;20521;-43
2022/12/24 19:08:56;;;;;;;16.05;6.88;;;8.30;99.90;;;;;;20658304;28;20093;-43
2022/12/24 19:18:57;;;;;;;19.83;7.95;;;8.30;99.90;;;;;;20647816;28;20208;-43
2022/12/24 19:28:58;;;;;;;20.08;6.82;;;8.30;99.90;;;;;;20647797;28;20446;-43
2022/12/24 19:38:59;;;;;;;50.15;10.63;;;8.30;99.90;;;;;;20640376;28;20949;-43
2022/12/24 19:49:07;;;;;;;19.10;6.97;;;8.40;99.90;;;;;;20644438;28;20239;-43
2022/12/24 19:59:09;;;;;;;21.50;8.82;;;8.40;99.90;;;;;;20655567;28;20327;-43
2022/12/24 20:09:11;;;;;;;29.77;8.07;;;8.50;99.90;;;;;;20635758;28;20870;-43
2022/12/24 20:19:13;;;;;;;22.17;8.00;;;8.60;99.90;;;;;;20631950;28;20550;-43
2022/12/24 20:29:14;;;;;;;12.63;5.57;;;8.60;99.90;;;;;;20622892;28;20159;-43
2022/12/24 20:39:16;;;;;;;21.77;8.18;;;8.60;99.90;;;;;;20637021;28;20120;-43
2022/12/24 20:49:17;;;;;;;101.55;11.10;;;8.60;99.90;;;;;;20643455;28;20794;-42
2022/12/24 20:59:18;;;;;;;12.38;5.35;;;8.60;99.90;;;;;;20649799;28;20125;-42
2022/12/24 21:09:19;;;;;;;11.07;5.20;;;8.70;99.90;;;;;;20656472;28;20148;-43
2022/12/24 21:19:22;;;;;;;14.65;6.07;;;8.80;99.90;;;;;;20642338;28;20141;-43
2022/12/24 21:29:23;;;;;;;14.35;5.25;;;8.80;99.90;;;;;;20625883;28;20567;-43
2022/12/24 21:39:24;;;;;;;16.35;9.02;;;8.70;99.90;;;;;;20641593;28;20170;-43
2022/12/24 21:59:47;;;;;;;18.35;7.18;;;8.60;99.90;;;;;;20638398;28;20145;-43
2022/12/24 22:20:09;;;;;;;13.05;5.88;;;8.50;99.90;;;;;;20683491;28;21579;-42
2022/12/24 22:30:10;;;;;;;21.85;6.15;;;8.40;99.90;;;;;;20677117;28;20042;-43
2022/12/24 22:40:11;;;;;;;19.23;6.18;;;8.30;99.90;;;;;;20677045;28;20042;-43
2022/12/24 22:50:12;;;;;;;14.70;5.47;;;8.20;99.90;;;;;;20670480;28;20325;-43
2022/12/24 23:00:37;;;;;;;11.95;5.15;;;8.30;99.90;;;;;;20683003;28;20033;-43
2022/12/24 23:10:38;;;;;;;9.70;5.00;;;8.30;99.90;;;;;;20678349;28;20596;-43
2022/12/24 23:20:45;;;;;;;8.55;4.20;;;8.40;99.90;;;;;;20671533;28;20069;-43
2022/12/24 23:30:56;;;;;;;10.23;4.97;;;8.40;99.90;;;;;;20683098;28;20097;-43
2022/12/24 23:40:59;;;;;;;9.50;4.72;;;8.50;99.90;;;;;;20681229;28;20084;-43
2022/12/24 23:51:10;;;;;;;6.65;3.50;;;8.50;99.90;;;;;;20677792;28;20155;-43
